createdAt,value
2023-02-14T03:59:24.382Z,42.60
2023-02-14T04:00:24.342Z,43.08
2023-02-14T04:01:24.360Z,42.80
2023-02-14T04:02:24.296Z,42.70
2023-02-14T04:03:24.373Z,42.89
2023-02-14T04:04:24.322Z,42.89
2023-02-14T04:05:24.291Z,42.89
2023-02-14T04:06:24.315Z,42.89
2023-02-14T04:07:24.299Z,42.99
2023-02-14T04:08:24.281Z,43.18
2023-02-14T04:09:24.251Z,43.37
2023-02-14T04:10:24.255Z,43.08
2023-02-14T04:11:24.730Z,43.18
2023-02-14T04:12:37.270Z,43.18
2023-02-14T04:13:24.244Z,42.99
2023-02-14T04:14:24.229Z,43.28
2023-02-14T04:15:24.262Z,43.18
2023-02-14T04:16:24.378Z,43.18
2023-02-14T04:17:24.203Z,43.47
2023-02-14T04:18:24.198Z,43.28
2023-02-14T04:19:24.221Z,43.47
2023-02-14T04:20:24.194Z,43.28
2023-02-14T04:21:24.216Z,43.28
2023-02-14T04:22:24.200Z,43.28
2023-02-14T04:23:24.209Z,43.30
2023-02-14T04:24:24.174Z,43.11
2023-02-14T04:25:24.172Z,43.20
2023-02-14T04:26:24.160Z,43.20
2023-02-14T04:27:24.170Z,43.40
2023-02-14T04:28:24.158Z,43.11
2023-02-14T04:29:24.165Z,43.30
2023-02-14T04:30:24.256Z,43.20
2023-02-14T04:31:24.287Z,43.40
2023-02-14T04:32:24.211Z,43.30
2023-02-14T04:33:24.140Z,43.20
2023-02-14T04:34:24.126Z,43.20
2023-02-14T04:35:24.133Z,43.11
2023-02-14T04:36:24.114Z,43.11
2023-02-14T04:37:24.125Z,43.11
2023-02-14T04:38:24.107Z,43.30
2023-02-14T04:39:24.111Z,43.20
2023-02-14T04:40:24.123Z,43.30
2023-02-14T04:41:24.095Z,43.30
2023-02-14T04:42:24.107Z,43.11
2023-02-14T04:43:24.102Z,43.20
2023-02-14T04:44:24.092Z,43.59
2023-02-14T04:45:24.076Z,43.49
2023-02-14T04:46:24.142Z,43.40
2023-02-14T04:47:24.120Z,43.40
2023-02-14T04:48:24.074Z,43.40
2023-02-14T04:49:24.070Z,43.40
2023-02-14T04:50:24.064Z,43.30
2023-02-14T04:51:25.673Z,43.20
2023-02-14T04:52:24.053Z,43.40
2023-02-14T04:53:24.062Z,43.20
2023-02-14T04:54:24.042Z,43.40
2023-02-14T04:55:24.032Z,43.49
2023-02-14T04:56:24.028Z,43.11
2023-02-14T04:57:24.028Z,43.30
2023-02-14T04:58:24.031Z,43.11
2023-02-14T04:59:25.109Z,43.01
2023-02-14T05:00:24.047Z,43.01
2023-02-14T05:01:24.015Z,43.11
2023-02-14T05:02:24.091Z,43.01
2023-02-14T05:03:24.029Z,43.01
2023-02-14T05:04:24.021Z,43.03
2023-02-14T05:05:24.005Z,42.72
2023-02-14T05:06:23.983Z,43.01
2023-02-14T05:07:24.015Z,42.82
2023-02-14T05:08:23.985Z,42.93
2023-02-14T05:09:23.989Z,42.84
2023-02-14T05:10:23.955Z,42.82
2023-02-14T05:11:23.972Z,42.84
2023-02-14T05:12:23.963Z,42.72
2023-02-14T05:13:23.977Z,42.72
2023-02-14T05:14:23.943Z,42.74
2023-02-14T05:15:23.942Z,42.65
2023-02-14T05:16:23.971Z,42.65
2023-02-14T05:17:23.935Z,42.74
2023-02-14T05:18:23.947Z,42.84
2023-02-14T05:19:23.970Z,42.84
2023-02-14T05:20:23.917Z,42.84
2023-02-14T05:21:23.920Z,42.93
2023-02-14T05:22:23.940Z,42.93
2023-02-14T05:23:23.910Z,43.13
2023-02-14T05:24:23.905Z,42.55
2023-02-14T05:25:23.904Z,42.74
2023-02-14T05:26:23.914Z,42.93
2023-02-14T05:27:23.900Z,42.74
2023-02-14T05:28:23.898Z,42.65
2023-02-14T05:29:23.905Z,42.74
2023-02-14T05:30:24.038Z,42.65
2023-02-14T05:31:24.053Z,42.65
2023-02-14T05:32:23.863Z,42.74
2023-02-14T05:33:23.857Z,42.65
2023-02-14T05:34:23.876Z,42.74
2023-02-14T05:35:23.865Z,42.74
2023-02-14T05:36:23.868Z,42.72
2023-02-14T05:37:23.873Z,42.65
2023-02-14T05:38:23.843Z,42.63
2023-02-14T05:39:23.830Z,42.65
2023-02-14T05:41:23.849Z,42.65
2023-02-14T05:42:23.817Z,42.65
2023-02-14T05:43:23.813Z,42.55
2023-02-14T05:44:23.823Z,42.55
2023-02-14T05:45:23.958Z,42.55
2023-02-14T05:46:23.817Z,42.63
2023-02-14T05:47:23.835Z,42.46
2023-02-14T05:48:23.794Z,42.55
2023-02-14T05:49:23.806Z,42.36
2023-02-14T05:50:23.801Z,42.36
2023-02-14T05:51:23.861Z,42.46
2023-02-14T05:52:23.778Z,42.55
2023-02-14T05:53:23.789Z,42.46
2023-02-14T05:54:23.789Z,42.46
2023-02-14T05:55:23.777Z,42.46
2023-02-14T05:56:23.791Z,42.36
2023-02-14T05:57:23.764Z,42.46
2023-02-14T05:58:23.787Z,42.26
2023-02-14T05:59:23.762Z,42.36
2023-02-14T06:00:23.772Z,42.36
2023-02-14T06:01:23.751Z,42.16
2023-02-14T06:02:23.771Z,42.46
2023-02-14T06:03:23.752Z,42.26
2023-02-14T06:04:23.812Z,42.36
2023-02-14T06:05:23.739Z,42.26
2023-02-14T06:06:23.751Z,42.36
2023-02-14T06:07:23.734Z,42.46
2023-02-14T06:08:23.746Z,42.26
2023-02-14T06:09:23.724Z,42.36
2023-02-14T06:10:23.717Z,42.43
2023-02-14T06:11:23.718Z,42.24
2023-02-14T06:12:23.779Z,42.16
2023-02-14T06:13:23.719Z,42.46
2023-02-14T06:14:23.704Z,42.65
2023-02-14T06:15:23.710Z,42.55
2023-02-14T06:16:23.752Z,42.36
2023-02-14T06:17:23.684Z,42.36
2023-02-14T06:18:23.680Z,42.16
2023-02-14T06:19:23.674Z,42.16
2023-02-14T06:20:23.676Z,42.36
2023-02-14T06:21:23.667Z,42.36
2023-02-14T06:22:23.659Z,42.16
2023-02-14T06:23:23.721Z,42.16
2023-02-14T06:24:23.681Z,42.16
2023-02-14T06:25:23.660Z,42.26
2023-02-14T06:28:56.176Z,42.16
2023-02-14T06:29:56.237Z,42.05
2023-02-14T06:31:31.520Z,42.16
2023-02-14T06:31:56.232Z,42.16
2023-02-14T06:32:56.183Z,42.16
2023-02-14T06:33:56.142Z,42.07
2023-02-14T06:34:56.152Z,42.16
2023-02-14T06:35:56.171Z,42.16
2023-02-14T06:36:56.141Z,42.05
2023-02-14T06:37:56.133Z,42.07
2023-02-14T06:38:56.131Z,42.16
2023-02-14T06:39:56.138Z,41.97
2023-02-14T06:40:56.159Z,41.97
2023-02-14T06:41:56.102Z,42.16
2023-02-14T06:42:56.115Z,42.07
2023-02-14T06:43:56.140Z,42.16
2023-02-14T06:44:56.145Z,42.07
2023-02-14T06:45:56.181Z,42.07
2023-02-14T06:46:56.185Z,41.97
2023-02-14T06:47:56.167Z,42.07
2023-02-14T06:48:56.121Z,42.07
2023-02-14T06:49:56.223Z,42.07
2023-02-14T06:50:56.249Z,41.97
2023-02-14T06:51:56.173Z,41.97
2023-02-14T06:52:56.119Z,42.07
2023-02-14T06:53:56.228Z,41.88
2023-02-14T06:54:56.099Z,41.88
2023-02-14T06:55:56.050Z,41.78
2023-02-14T06:56:56.059Z,41.97
2023-02-14T06:57:56.509Z,41.88
2023-02-14T06:58:56.074Z,41.78
2023-02-14T06:59:56.041Z,42.07
2023-02-14T07:00:56.062Z,41.97
2023-02-14T07:01:56.664Z,42.07
2023-02-14T07:02:56.155Z,41.97
2023-02-14T07:03:56.038Z,42.16
2023-02-14T07:04:56.094Z,42.26
2023-02-14T07:05:56.001Z,41.78
2023-02-14T07:06:56.021Z,42.16
2023-02-14T07:07:56.000Z,41.68
2023-02-14T07:08:55.999Z,42.16
2023-02-14T07:09:55.992Z,41.78
2023-02-14T07:10:56.013Z,41.88
2023-02-14T07:11:55.995Z,41.78
2023-02-14T07:12:55.985Z,41.88
2023-02-14T07:13:55.995Z,41.68
2023-02-14T07:14:56.017Z,41.68
2023-02-14T07:15:56.053Z,41.97
2023-02-14T07:16:55.954Z,41.59
2023-02-14T07:17:55.971Z,41.68
2023-02-14T07:18:55.955Z,41.78
2023-02-14T07:19:55.946Z,41.59
2023-02-14T07:20:55.934Z,41.59
2023-02-14T07:21:55.951Z,41.49
2023-02-14T07:22:55.945Z,41.88
2023-02-14T07:23:55.921Z,41.88
2023-02-14T07:24:55.916Z,41.88
2023-02-14T07:25:55.921Z,42.07
2023-02-14T07:26:55.979Z,41.59
2023-02-14T07:27:55.926Z,41.59
2023-02-14T07:28:55.914Z,41.88
2023-02-14T07:29:55.919Z,42.07
2023-02-14T07:30:56.074Z,41.59
2023-02-14T07:31:56.012Z,41.59
2023-02-14T07:32:55.909Z,41.78
2023-02-14T07:33:55.920Z,41.68
2023-02-14T07:34:55.891Z,42.07
2023-02-14T07:35:55.883Z,41.59
2023-02-14T07:36:55.883Z,41.39
2023-02-14T07:37:55.911Z,41.49
2023-02-14T07:38:55.878Z,41.68
2023-02-14T07:39:55.902Z,41.39
2023-02-14T07:40:55.963Z,41.49
2023-02-14T07:41:55.884Z,41.49
2023-02-14T07:42:55.899Z,41.49
2023-02-14T07:43:55.949Z,41.59
2023-02-14T07:47:54.104Z,41.59
2023-02-14T07:48:54.090Z,41.39
2023-02-14T07:49:54.112Z,41.68
2023-02-14T07:50:54.112Z,41.39
2023-02-14T07:51:54.231Z,41.39
2023-02-14T07:52:54.065Z,41.49
2023-02-14T07:53:54.062Z,41.68
2023-02-14T07:54:54.075Z,41.59
2023-02-14T07:55:54.063Z,41.59
2023-02-14T07:56:54.061Z,41.30
2023-02-14T07:57:54.046Z,41.59
2023-02-14T07:58:54.139Z,41.59
2023-02-14T07:59:54.038Z,41.39
2023-02-14T08:00:54.064Z,41.30
2023-02-14T08:01:54.166Z,41.39
2023-02-14T08:02:54.369Z,41.59
2023-02-14T08:03:55.136Z,41.49
2023-02-14T08:04:54.051Z,41.20
2023-02-14T08:05:54.051Z,41.32
2023-02-14T08:06:54.006Z,41.22
2023-02-14T08:07:54.013Z,41.22
2023-02-14T08:08:54.003Z,41.13
2023-02-14T08:09:54.013Z,40.94
2023-02-14T08:10:54.027Z,41.32
2023-02-14T08:11:54.026Z,41.32
2023-02-14T08:12:53.993Z,41.13
2023-02-14T08:13:53.977Z,41.03
2023-02-14T08:14:53.999Z,40.64
2023-02-14T08:15:54.046Z,41.32
2023-02-14T08:16:53.959Z,41.51
2023-02-14T08:17:53.956Z,41.32
2023-02-14T08:18:53.956Z,40.84
2023-02-14T08:19:54.069Z,40.84
2023-02-14T08:20:53.967Z,40.74
2023-02-14T08:21:53.940Z,40.86
2023-02-14T08:22:53.942Z,41.05
2023-02-14T08:23:53.933Z,40.95
2023-02-14T08:24:54.010Z,40.95
2023-02-14T08:25:54.010Z,41.14
2023-02-14T08:26:53.936Z,41.14
2023-02-14T08:27:53.985Z,40.86
2023-02-14T08:28:53.988Z,40.76
2023-02-14T08:29:54.056Z,40.86
2023-02-14T08:30:54.185Z,41.34
2023-02-14T08:31:55.494Z,40.76
2023-02-14T08:32:55.685Z,40.86
2023-02-14T08:33:53.964Z,41.34
2023-02-14T08:34:53.919Z,41.14
2023-02-14T08:35:53.987Z,40.76
2023-02-14T08:36:54.040Z,40.76
2023-02-14T08:37:53.880Z,40.66
2023-02-14T08:38:53.889Z,40.78
2023-02-14T08:39:53.877Z,40.78
2023-02-14T08:40:53.993Z,40.88
2023-02-14T08:41:53.867Z,40.78
2023-02-14T08:42:54.000Z,40.97
2023-02-14T08:43:53.971Z,40.78
2023-02-14T08:44:54.049Z,40.49
2023-02-14T08:45:53.891Z,40.59
2023-02-14T08:46:53.989Z,40.59
2023-02-14T08:47:53.869Z,40.59
2023-02-14T08:48:54.525Z,40.88
2023-02-14T08:49:53.876Z,40.69
2023-02-14T08:50:53.991Z,40.78
2023-02-14T08:51:54.047Z,40.69
2023-02-14T08:52:53.840Z,40.70
2023-02-14T08:53:54.097Z,40.78
2023-02-14T08:54:54.101Z,40.70
2023-02-14T08:55:53.942Z,40.70
2023-02-14T08:56:53.851Z,40.61
2023-02-14T08:57:53.865Z,40.61
2023-02-14T08:58:53.822Z,40.51
2023-02-14T08:59:53.832Z,40.42
2023-02-14T09:00:53.923Z,40.42
2023-02-14T09:01:53.837Z,40.42
2023-02-14T09:02:53.829Z,40.32
2023-02-14T09:03:53.833Z,40.32
2023-02-14T09:04:53.798Z,40.12
2023-02-14T09:05:53.835Z,40.22
2023-02-14T09:06:53.841Z,40.22
2023-02-14T09:07:53.905Z,40.22
2023-02-14T09:08:53.841Z,40.22
2023-02-14T09:09:53.860Z,40.34
2023-02-14T09:10:53.794Z,40.32
2023-02-14T09:11:53.804Z,40.24
2023-02-14T09:12:53.793Z,40.34
2023-02-14T09:13:53.786Z,40.24
2023-02-14T09:14:53.775Z,40.63
2023-02-14T09:15:53.999Z,40.63
2023-02-14T09:16:53.908Z,40.34
2023-02-14T09:17:53.822Z,40.44
2023-02-14T09:18:53.831Z,40.53
2023-02-14T09:19:53.835Z,40.53
2023-02-14T09:20:53.867Z,40.44
2023-02-14T09:21:53.805Z,40.63
2023-02-14T09:22:53.759Z,40.44
2023-02-14T09:23:53.812Z,40.05
2023-02-14T09:24:53.869Z,40.55
2023-02-14T09:25:53.747Z,40.63
2023-02-14T09:26:53.736Z,40.44
2023-02-14T09:27:53.815Z,40.24
2023-02-14T09:28:53.768Z,39.97
2023-02-14T09:29:53.847Z,39.87
2023-02-14T09:30:54.608Z,40.36
2023-02-14T09:31:53.929Z,39.97
2023-02-14T09:32:53.744Z,39.97
2023-02-14T09:33:53.777Z,39.87
2023-02-14T09:34:53.969Z,40.07
2023-02-14T09:35:53.734Z,40.26
2023-02-14T09:37:53.728Z,40.17
2023-02-14T09:38:53.722Z,40.17
2023-02-14T09:39:53.770Z,40.36
2023-02-14T09:40:53.722Z,40.17
2023-02-14T09:41:53.739Z,40.17
2023-02-14T09:45:26.955Z,40.07
2023-02-14T09:46:26.859Z,40.09
2023-02-14T09:47:26.859Z,40.19
2023-02-14T09:48:28.272Z,40.09
2023-02-14T09:49:26.933Z,40.09
2023-02-14T09:50:26.877Z,40.28
2023-02-14T09:51:26.871Z,40.09
2023-02-14T09:52:26.838Z,40.19
2023-02-14T09:53:26.856Z,40.28
2023-02-14T09:54:26.873Z,40.19
2023-02-14T09:55:26.951Z,40.19
2023-02-14T09:56:26.845Z,40.19
2023-02-14T09:57:26.816Z,40.19
2023-02-14T09:58:27.957Z,40.38
2023-02-14T10:00:26.831Z,40.40
2023-02-14T10:01:26.923Z,40.20
2023-02-14T10:02:26.833Z,40.20
2023-02-14T10:13:42.923Z,40.01
2023-02-14T10:14:42.857Z,40.11
2023-02-14T10:15:42.884Z,40.11
2023-02-14T10:16:43.101Z,40.11
2023-02-14T10:17:42.903Z,40.01
2023-02-14T10:18:42.854Z,40.23
2023-02-14T10:19:42.847Z,40.20
2023-02-14T10:20:42.842Z,40.03
2023-02-14T10:21:42.837Z,40.32
2023-02-14T10:22:42.857Z,40.32
2023-02-14T10:23:42.855Z,40.32
2023-02-14T10:24:42.876Z,40.13
2023-02-14T10:25:42.828Z,40.03
2023-02-14T10:26:42.888Z,40.32
2023-02-14T10:27:43.076Z,40.03
2023-02-14T10:28:43.003Z,39.94
2023-02-14T10:29:43.400Z,40.03
2023-02-14T10:30:43.065Z,39.95
2023-02-14T10:31:43.038Z,40.05
2023-02-14T10:32:42.812Z,40.05
2023-02-14T10:33:42.825Z,39.95
2023-02-14T10:34:42.822Z,40.05
2023-02-14T10:35:42.832Z,39.95
2023-02-14T10:36:42.944Z,39.86
2023-02-14T10:37:42.830Z,39.95
2023-02-14T10:38:43.611Z,39.95
2023-02-14T10:39:43.072Z,40.05
2023-02-14T10:40:43.182Z,40.05
2023-02-14T10:41:42.916Z,40.17
2023-02-14T10:42:42.874Z,39.97
2023-02-14T10:43:42.836Z,40.07
2023-02-14T10:44:42.839Z,40.07
2023-02-14T10:45:42.918Z,40.36
2023-02-14T10:46:42.855Z,40.07
2023-02-14T10:47:42.867Z,40.36
2023-02-14T10:48:43.212Z,40.17
2023-02-14T10:49:42.885Z,40.36
2023-02-14T10:50:42.865Z,40.26
2023-02-14T10:51:42.895Z,40.19
2023-02-14T10:52:42.834Z,40.48
2023-02-14T10:53:42.841Z,40.38
2023-02-14T10:54:42.866Z,40.28
2023-02-14T10:55:42.837Z,39.90
2023-02-14T10:56:42.831Z,40.09
2023-02-14T10:57:42.824Z,40.00
2023-02-14T10:58:42.837Z,40.21
2023-02-14T10:59:42.836Z,39.82
2023-02-14T11:00:42.857Z,40.01
2023-02-14T11:01:42.942Z,39.72
2023-02-14T11:02:43.436Z,40.01
2023-02-14T11:03:44.102Z,39.92
2023-02-14T11:04:42.827Z,40.01
2023-02-14T11:05:46.084Z,39.82
2023-02-14T11:06:42.870Z,40.11
2023-02-14T11:07:42.848Z,40.01
2023-02-14T11:08:42.893Z,40.01
2023-02-14T11:09:42.868Z,39.72
2023-02-14T11:10:42.839Z,39.72
2023-02-14T11:11:42.855Z,40.11
2023-02-14T11:12:42.846Z,39.94
2023-02-14T11:13:42.870Z,40.23
2023-02-14T11:14:42.881Z,40.03
2023-02-14T11:15:42.870Z,39.65
2023-02-14T11:16:42.904Z,40.13
2023-02-14T11:17:42.846Z,40.03
2023-02-14T11:18:42.854Z,40.03
2023-02-14T11:19:42.853Z,39.84
2023-02-14T11:20:42.864Z,39.94
2023-02-14T11:21:42.862Z,39.36
2023-02-14T11:22:42.890Z,39.45
2023-02-14T11:23:42.861Z,39.36
2023-02-14T11:24:42.862Z,39.36
2023-02-14T11:25:42.851Z,39.55
2023-02-14T11:26:42.854Z,39.57
2023-02-14T11:27:42.849Z,39.45
2023-02-14T11:28:42.897Z,39.65
2023-02-14T11:29:42.871Z,39.45
2023-02-14T11:30:42.933Z,39.45
2023-02-14T11:31:43.012Z,39.55
2023-02-14T11:32:42.874Z,39.55
2023-02-14T11:33:42.895Z,39.55
2023-02-14T11:34:42.920Z,39.55
2023-02-14T11:35:42.864Z,39.55
2023-02-14T11:36:42.876Z,39.65
2023-02-14T11:37:42.870Z,39.65
2023-02-14T11:38:42.879Z,39.45
2023-02-14T11:39:42.888Z,39.65
2023-02-14T11:40:42.881Z,39.67
2023-02-14T11:41:42.891Z,39.65
2023-02-14T11:42:42.871Z,39.65
2023-02-14T11:43:42.888Z,39.57
2023-02-14T11:44:42.917Z,39.55
2023-02-14T11:45:43.005Z,39.55
2023-02-14T11:46:52.817Z,39.55
2023-02-14T11:47:42.904Z,39.55
2023-02-14T11:48:42.886Z,39.57
2023-02-14T11:49:42.898Z,39.45
2023-02-14T11:50:42.897Z,39.47
2023-02-14T11:51:42.881Z,39.26
2023-02-14T11:52:42.910Z,39.18
2023-02-14T11:54:42.881Z,39.57
2023-02-14T11:55:42.935Z,39.37
2023-02-14T11:56:42.899Z,39.57
2023-02-14T11:57:42.901Z,39.37
2023-02-14T11:58:43.016Z,39.37
2023-02-14T11:59:42.954Z,39.47
2023-02-14T12:00:42.893Z,39.18
2023-02-14T12:01:42.905Z,39.37
2023-02-14T12:02:42.923Z,39.39
2023-02-14T12:03:42.936Z,39.28
2023-02-14T12:04:46.592Z,39.39
2023-02-14T12:05:42.930Z,39.29
2023-02-14T12:06:42.900Z,39.29
2023-02-14T12:07:42.912Z,39.01
2023-02-14T12:08:42.925Z,39.11
2023-02-14T12:09:42.925Z,39.12
2023-02-14T12:10:42.897Z,39.22
2023-02-14T12:11:42.932Z,39.03
2023-02-14T12:12:42.912Z,39.03
2023-02-14T12:13:42.909Z,39.03
2023-02-14T12:17:16.127Z,39.04
2023-02-14T12:18:16.164Z,39.04
2023-02-14T12:19:16.140Z,39.04
2023-02-14T12:20:16.026Z,39.04
2023-02-14T12:21:16.054Z,38.65
2023-02-14T12:22:16.088Z,38.48
2023-02-14T12:23:16.076Z,38.57
2023-02-14T12:24:16.096Z,38.67
2023-02-14T12:25:16.135Z,38.79
2023-02-14T12:26:16.085Z,38.79
2023-02-14T12:27:16.069Z,38.40
2023-02-14T12:28:16.744Z,38.50
2023-02-14T12:29:16.062Z,38.32
2023-02-14T12:30:16.077Z,38.52
2023-02-14T12:31:16.207Z,38.52
2023-02-14T12:32:16.160Z,38.34
2023-02-14T12:33:16.575Z,38.24
2023-02-14T12:34:16.156Z,38.44
2023-02-14T12:35:17.171Z,38.56
2023-02-14T12:36:16.115Z,38.46
2023-02-14T12:37:16.086Z,38.17
2023-02-14T12:38:16.243Z,38.09
2023-02-14T12:39:16.078Z,38.09
2023-02-14T12:40:16.192Z,38.38
2023-02-14T12:41:16.096Z,37.91
2023-02-14T12:42:16.073Z,37.91
2023-02-14T12:43:16.091Z,37.83
2023-02-14T12:44:16.079Z,38.02
2023-02-14T12:45:16.085Z,37.73
2023-02-14T12:46:16.134Z,37.63
2023-02-14T12:47:16.133Z,37.65
2023-02-14T12:48:16.818Z,37.55
2023-02-14T12:49:16.097Z,37.38
2023-02-14T12:50:16.225Z,37.38
2023-02-14T12:51:16.149Z,37.29
2023-02-14T12:52:16.130Z,37.29
2023-02-14T12:53:16.136Z,37.57
2023-02-14T12:54:16.130Z,37.40
2023-02-14T12:55:16.162Z,37.11
2023-02-14T12:56:16.135Z,37.01
2023-02-14T12:57:16.167Z,36.83
2023-02-14T12:58:16.157Z,36.83
2023-02-14T12:59:16.212Z,36.93
2023-02-14T13:00:16.197Z,37.22
2023-02-14T13:01:24.680Z,36.94
2023-02-14T13:02:16.218Z,36.26
2023-02-14T13:03:16.294Z,36.75
2023-02-14T13:04:16.164Z,36.38
2023-02-14T13:05:16.178Z,36.65
2023-02-14T13:06:16.233Z,36.57
2023-02-14T13:07:16.193Z,36.67
2023-02-14T13:08:16.186Z,36.47
2023-02-14T13:09:16.188Z,36.47
2023-02-14T13:10:16.237Z,36.30
2023-02-14T13:11:16.255Z,36.00
2023-02-14T13:12:16.201Z,36.10
2023-02-14T13:13:16.209Z,36.02
2023-02-14T13:14:16.239Z,36.22
2023-02-14T13:15:17.302Z,35.83
2023-02-14T13:16:18.217Z,35.93
2023-02-14T13:17:17.124Z,35.93
2023-02-14T13:18:16.232Z,35.75
2023-02-14T13:19:16.255Z,36.14
2023-02-14T13:20:16.273Z,35.65
2023-02-14T13:21:16.291Z,35.85
2023-02-14T13:22:16.280Z,35.65
2023-02-14T13:23:16.322Z,35.37
2023-02-14T13:24:16.279Z,35.47
2023-02-14T13:26:16.317Z,35.47
2023-02-14T13:28:16.341Z,35.00
2023-02-14T13:29:16.316Z,35.17
2023-02-14T13:30:16.388Z,35.00
2023-02-14T13:31:16.463Z,35.49
2023-02-14T13:32:16.512Z,35.10
2023-02-14T13:33:16.351Z,35.29
2023-02-14T13:34:16.397Z,35.29
2023-02-14T13:35:16.336Z,34.90
2023-02-14T13:36:16.367Z,35.00
2023-02-14T13:37:16.359Z,34.80
2023-02-14T13:38:16.363Z,35.19
2023-02-14T13:39:16.403Z,35.02
2023-02-14T13:40:16.366Z,34.72
2023-02-14T13:41:16.396Z,35.21
2023-02-14T13:42:16.370Z,35.11
2023-02-14T13:43:16.370Z,35.02
2023-02-14T13:44:16.412Z,35.02
2023-02-14T13:45:16.386Z,34.62
2023-02-14T13:46:16.488Z,34.52
2023-02-14T13:47:16.405Z,34.72
2023-02-14T13:48:16.407Z,34.74
2023-02-14T13:49:16.413Z,34.74
2023-02-14T13:50:16.421Z,34.54
2023-02-14T13:52:16.428Z,34.25
2023-02-14T13:53:16.453Z,34.54
2023-02-14T13:54:18.017Z,34.34
2023-02-14T13:55:16.449Z,34.25
2023-02-14T13:56:16.568Z,34.34
2023-02-14T13:57:16.499Z,34.34
2023-02-14T13:58:16.486Z,34.25
2023-02-14T13:59:16.484Z,34.34
2023-02-14T14:00:16.543Z,34.34
2023-02-14T14:01:16.523Z,34.05
2023-02-14T14:02:16.480Z,34.34
2023-02-14T14:03:16.515Z,34.05
2023-02-14T14:04:16.623Z,33.95
2023-02-14T14:05:16.557Z,34.05
2023-02-14T14:06:16.511Z,33.95
2023-02-14T14:07:16.520Z,34.15
2023-02-14T14:08:16.521Z,33.95
2023-02-14T14:09:16.626Z,34.05
2023-02-14T14:10:16.525Z,34.15
2023-02-14T14:11:16.560Z,34.25
2023-02-14T14:12:16.543Z,34.15
2023-02-14T14:13:16.548Z,34.25
2023-02-14T14:14:16.560Z,34.15
2023-02-14T14:15:16.576Z,34.34
2023-02-14T14:16:16.669Z,34.15
2023-02-14T14:17:16.606Z,34.34
2023-02-14T14:18:16.599Z,34.33
2023-02-14T14:19:16.614Z,34.23
2023-02-14T14:20:16.603Z,34.23
2023-02-14T14:21:16.674Z,34.23
2023-02-14T14:22:16.643Z,34.13
2023-02-14T14:23:16.611Z,34.13
2023-02-14T14:24:16.796Z,33.54
2023-02-14T14:27:49.243Z,34.23
2023-02-14T14:28:49.214Z,34.31
2023-02-14T14:29:49.354Z,34.11
2023-02-14T14:30:49.304Z,34.21
2023-02-14T14:31:49.261Z,34.01
2023-02-14T14:32:49.241Z,34.01
2023-02-14T14:33:49.238Z,33.92
2023-02-14T14:34:49.292Z,33.90
2023-02-14T14:35:49.258Z,33.90
2023-02-14T14:36:49.270Z,34.30
2023-02-14T14:37:49.273Z,34.00
2023-02-14T14:38:49.300Z,34.38
2023-02-14T14:39:49.291Z,34.38
2023-02-14T14:40:50.340Z,34.28
2023-02-14T14:41:49.278Z,34.47
2023-02-14T14:42:49.279Z,34.16
2023-02-14T14:43:49.410Z,34.16
2023-02-14T14:44:50.911Z,34.16
2023-02-14T14:45:49.802Z,34.64
2023-02-14T14:46:50.467Z,34.34
2023-02-14T14:47:49.473Z,34.81
2023-02-14T14:48:49.350Z,34.62
2023-02-14T14:49:49.328Z,35.01
2023-02-14T14:50:49.413Z,34.89
2023-02-14T14:51:49.320Z,35.17
2023-02-14T14:52:49.326Z,34.97
2023-02-14T14:53:49.353Z,34.86
2023-02-14T14:54:49.338Z,35.55
2023-02-14T14:55:49.341Z,35.14
2023-02-14T14:56:49.349Z,35.63
2023-02-14T14:57:49.371Z,36.02
2023-02-14T14:58:49.362Z,35.51
2023-02-14T14:59:49.392Z,35.98
2023-02-14T15:00:49.474Z,35.86
2023-02-14T15:01:49.370Z,36.35
2023-02-14T15:02:49.414Z,36.43
2023-02-14T15:03:49.390Z,36.43
2023-02-14T15:04:49.498Z,36.33
2023-02-14T15:05:49.400Z,36.32
2023-02-14T15:06:49.388Z,36.22
2023-02-14T15:07:49.426Z,36.59
2023-02-14T15:08:49.404Z,36.40
2023-02-14T15:09:49.426Z,36.67
2023-02-14T15:10:50.489Z,36.87
2023-02-14T15:11:49.399Z,36.96
2023-02-14T15:12:49.412Z,37.14
2023-02-14T15:13:49.507Z,37.34
2023-02-14T15:14:49.447Z,37.22
2023-02-14T15:15:49.438Z,37.12
2023-02-14T15:16:49.475Z,37.32
2023-02-14T15:17:49.462Z,37.49
2023-02-14T15:18:49.448Z,37.57
2023-02-14T15:19:49.423Z,37.37
2023-02-14T15:20:49.469Z,37.47
2023-02-14T15:21:49.434Z,37.47
2023-02-14T15:22:49.444Z,37.55
2023-02-14T15:23:49.430Z,37.55
2023-02-14T15:24:49.439Z,37.65
2023-02-14T15:25:49.461Z,37.92
2023-02-14T15:26:50.141Z,37.82
2023-02-14T15:27:49.457Z,37.73
2023-02-14T15:28:49.457Z,37.61
2023-02-14T15:29:49.485Z,38.00
2023-02-14T15:30:49.565Z,38.00
2023-02-14T15:31:49.712Z,37.71
2023-02-14T15:32:49.447Z,37.98
2023-02-14T15:33:49.447Z,37.88
2023-02-14T15:34:49.492Z,37.88
2023-02-14T15:35:49.503Z,38.07
2023-02-14T15:36:49.442Z,38.15
2023-02-14T15:37:49.443Z,38.06
2023-02-14T15:38:49.447Z,38.15
2023-02-14T15:39:49.449Z,38.25
2023-02-14T15:40:49.437Z,38.13
2023-02-14T15:41:49.444Z,38.04
2023-02-14T15:42:49.443Z,38.13
2023-02-14T15:43:49.460Z,38.04
2023-02-14T15:44:49.459Z,38.13
2023-02-14T15:45:49.566Z,38.21
2023-02-14T15:46:49.434Z,38.41
2023-02-14T15:47:49.446Z,38.31
2023-02-14T15:48:49.451Z,38.60
2023-02-14T15:49:49.468Z,38.48
2023-02-14T15:50:49.431Z,38.60
2023-02-14T15:51:49.448Z,38.39
2023-02-14T15:52:49.429Z,38.29
2023-02-14T15:53:49.430Z,38.39
2023-02-14T15:54:49.480Z,38.39
2023-02-14T15:55:49.482Z,38.58
2023-02-14T15:56:49.431Z,38.76
2023-02-14T15:57:49.434Z,38.85
2023-02-14T15:58:49.446Z,38.66
2023-02-14T15:59:49.429Z,38.95
2023-02-14T16:00:49.447Z,38.85
2023-02-14T16:12:51.083Z,38.91
2023-02-14T16:13:51.022Z,38.91
2023-02-14T16:14:51.033Z,38.81
2023-02-14T16:15:51.092Z,39.11
2023-02-14T16:16:51.001Z,39.20
2023-02-14T16:17:51.022Z,39.20
2023-02-14T16:18:51.019Z,39.11
2023-02-14T16:19:51.004Z,39.20
2023-02-14T16:20:51.032Z,39.20
2023-02-14T16:21:51.019Z,38.89
2023-02-14T16:22:50.992Z,39.37
2023-02-14T16:23:50.995Z,39.47
2023-02-14T16:24:50.996Z,39.47
2023-02-14T16:25:51.000Z,39.18
2023-02-14T16:26:50.975Z,39.37
2023-02-14T16:27:51.012Z,39.37
2023-02-14T16:28:50.979Z,39.47
2023-02-14T16:29:51.017Z,39.18
2023-02-14T16:30:51.135Z,39.57
2023-02-14T16:32:15.664Z,39.57
2023-02-14T16:32:50.972Z,39.57
2023-02-14T16:33:50.947Z,39.37
2023-02-14T16:34:50.954Z,39.54
2023-02-14T16:35:50.986Z,39.74
2023-02-14T16:36:50.943Z,39.74
2023-02-14T16:37:50.939Z,39.74
2023-02-14T16:38:50.963Z,39.74
2023-02-14T16:39:50.944Z,39.84
2023-02-14T16:40:50.934Z,40.12
2023-02-14T16:41:50.952Z,39.74
2023-02-14T16:42:50.953Z,40.03
2023-02-14T16:43:50.953Z,40.03
2023-02-14T16:44:50.939Z,40.12
2023-02-14T16:45:50.969Z,40.22
2023-02-14T16:46:51.024Z,39.94
2023-02-14T16:47:50.935Z,40.22
2023-02-14T16:48:50.910Z,40.32
2023-02-14T16:49:50.904Z,40.03
2023-02-14T16:50:50.927Z,39.94
2023-02-14T16:51:50.925Z,39.94
2023-02-14T16:52:50.919Z,40.32
2023-02-14T16:53:50.908Z,40.11
2023-02-14T16:54:50.923Z,40.42
2023-02-14T16:55:50.898Z,40.20
2023-02-14T16:56:50.892Z,40.11
2023-02-14T16:57:50.895Z,40.11
2023-02-14T16:58:50.911Z,40.11
2023-02-14T16:59:50.884Z,40.30
2023-02-14T17:00:50.891Z,40.20
2023-02-14T17:01:50.910Z,39.82
2023-02-14T17:02:50.948Z,39.91
2023-02-14T17:03:50.885Z,40.39
2023-02-14T17:04:50.860Z,40.01
2023-02-14T17:05:50.866Z,40.30
2023-02-14T17:06:50.861Z,40.49
2023-02-14T17:07:50.869Z,40.20
2023-02-14T17:08:50.878Z,40.39
2023-02-14T17:09:50.844Z,40.20
2023-02-14T17:10:50.838Z,40.30
2023-02-14T17:11:50.837Z,40.39
2023-02-14T17:12:50.838Z,40.30
2023-02-14T17:13:50.852Z,40.39
2023-02-14T17:14:50.833Z,40.39
2023-02-14T17:15:50.895Z,40.49
2023-02-14T17:16:50.884Z,40.49
2023-02-14T17:17:50.822Z,40.78
2023-02-14T17:18:50.823Z,40.88
2023-02-14T17:19:52.752Z,40.76
2023-02-14T17:20:50.827Z,40.66
2023-02-14T17:21:50.811Z,40.88
2023-02-14T17:22:50.816Z,40.86
2023-02-14T17:23:50.821Z,40.57
2023-02-14T17:24:50.826Z,40.66
2023-02-14T17:25:50.800Z,40.86
2023-02-14T17:26:50.787Z,40.76
2023-02-14T17:27:50.787Z,40.76
2023-02-14T17:28:50.802Z,40.76
2023-02-14T17:29:50.794Z,40.95
2023-02-14T17:30:50.992Z,40.86
2023-02-14T17:31:50.848Z,40.76
2023-02-14T17:32:50.802Z,40.76